Time;durP1;ratioP1;P1;durP2;ratioP2;P2;SDS_P1;SDS_P2;PMS_P1;PMS_P2;Temp;Humidity;BMP_temperature;BMP_pressure;BME280_temperature;BME280_humidity;BME280_pressure;Samples;Min_cycle;Max_cycle;Signal;HPM_P1;HPM_P2
2022/08/10 00:01:48;;;;;;;4.90;4.50;;;15.00;99.90;;;;;;5071329;28;20486;-66
2022/08/10 00:04:13;;;;;;;5.43;4.93;;;15.00;99.90;;;;;;5073636;28;20041;-66
2022/08/10 00:06:39;;;;;;;4.60;4.05;;;15.00;99.90;;;;;;5066267;28;20048;-66
2022/08/10 00:09:05;;;;;;;4.55;4.15;;;15.00;99.90;;;;;;5064316;28;20064;-66
2022/08/10 00:11:30;;;;;;;4.47;4.18;;;14.90;99.90;;;;;;5073309;28;20055;-66
2022/08/10 00:13:56;;;;;;;5.18;4.68;;;14.90;99.90;;;;;;5057006;28;20048;-66
2022/08/10 00:16:21;;;;;;;5.20;4.80;;;14.90;99.90;;;;;;5066606;28;20048;-66
2022/08/10 00:18:47;;;;;;;5.13;4.63;;;14.80;99.90;;;;;;5060886;28;20045;-66
2022/08/10 00:21:13;;;;;;;5.57;4.90;;;14.90;99.90;;;;;;5074465;28;20033;-66
2022/08/10 00:23:38;;;;;;;5.63;5.13;;;14.80;99.90;;;;;;5071246;28;20086;-66
2022/08/10 00:26:05;;;;;;;5.47;4.97;;;14.80;99.90;;;;;;5074428;28;20482;-66
2022/08/10 00:28:31;;;;;;;4.93;4.53;;;14.80;99.90;;;;;;5074577;28;20101;-66
2022/08/10 00:30:57;;;;;;;5.57;5.05;;;14.80;99.90;;;;;;5070758;28;20033;-66
2022/08/10 00:33:22;;;;;;;6.18;5.20;;;14.80;99.90;;;;;;5059481;28;20538;-66
2022/08/10 00:35:48;;;;;;;6.18;5.68;;;14.70;99.90;;;;;;5044807;28;20181;-66
2022/08/10 00:38:14;;;;;;;6.53;5.63;;;14.70;99.90;;;;;;5065992;28;20045;-66
2022/08/10 00:40:40;;;;;;;4.82;4.40;;;14.70;99.90;;;;;;5061329;28;20041;-66
2022/08/10 00:43:06;;;;;;;5.03;4.53;;;14.70;99.90;;;;;;5061176;28;20458;-66
2022/08/10 00:45:33;;;;;;;4.95;4.55;;;14.70;99.90;;;;;;5066613;28;20040;-66
2022/08/10 00:47:58;;;;;;;5.65;5.15;;;14.70;99.90;;;;;;5064344;28;20049;-66
2022/08/10 00:50:24;;;;;;;5.22;4.82;;;14.60;99.90;;;;;;5059540;28;20049;-66
2022/08/10 00:52:50;;;;;;;5.30;4.80;;;14.60;99.90;;;;;;5072604;28;20044;-66
2022/08/10 00:55:17;;;;;;;4.88;4.47;;;14.60;99.90;;;;;;5067613;28;20071;-66
2022/08/10 00:57:42;;;;;;;4.22;3.92;;;14.60;99.90;;;;;;5066557;28;20127;-66
2022/08/10 01:00:08;;;;;;;5.03;4.53;;;14.50;99.90;;;;;;5069568;28;20136;-66
2022/08/10 01:02:34;;;;;;;5.07;4.60;;;14.50;99.90;;;;;;5067160;28;20727;-66
2022/08/10 01:05:04;;;;;;;5.30;4.90;;;14.50;99.90;;;;;;5059036;28;20064;-66
2022/08/10 01:07:41;;;;;;;5.65;5.15;;;14.50;99.90;;;;;;5059745;28;20666;-66
2022/08/10 01:10:13;;;;;;;6.00;5.40;;;14.50;99.90;;;;;;5057170;28;20411;-66
2022/08/10 01:12:50;;;;;;;7.03;5.90;;;14.50;99.90;;;;;;5053436;28;20056;-66
2022/08/10 01:15:25;;;;;;;6.53;6.03;;;14.40;99.90;;;;;;5065791;28;20071;-66
2022/08/10 01:18:20;;;;;;;7.20;6.45;;;14.40;99.90;;;;;;5059850;28;20098;-66
2022/08/10 01:21:24;;;;;;;6.07;5.57;;;14.40;99.90;;;;;;5060431;28;20088;-66
2022/08/10 01:24:37;;;;;;;5.93;5.43;;;14.40;99.90;;;;;;5071963;28;20441;-66
2022/08/10 01:27:25;;;;;;;7.20;6.45;;;14.40;99.90;;;;;;5055389;28;20489;-66
2022/08/10 01:29:56;;;;;;;7.50;6.80;;;14.30;99.90;;;;;;5072116;28;20082;-66
2022/08/10 01:32:58;;;;;;;6.93;6.32;;;14.30;99.90;;;;;;5070119;28;20513;-66
2022/08/10 01:35:36;;;;;;;7.13;6.43;;;14.30;99.90;;;;;;5059143;28;20094;-66
2022/08/10 01:38:23;;;;;;;7.50;6.80;;;14.30;99.90;;;;;;5058968;28;20033;-66
2022/08/10 01:41:04;;;;;;;7.05;6.35;;;14.30;99.90;;;;;;5062063;28;20037;-66
2022/08/10 01:43:32;;;;;;;6.90;6.30;;;14.30;99.90;;;;;;5067341;28;20106;-66
2022/08/10 01:46:00;;;;;;;7.10;6.40;;;14.30;99.90;;;;;;5062847;28;20041;-66
2022/08/10 01:48:31;;;;;;;6.28;5.70;;;14.30;99.90;;;;;;5070338;28;20040;-66
2022/08/10 01:51:11;;;;;;;6.55;5.95;;;14.20;99.90;;;;;;5065955;28;20045;-66
2022/08/10 01:53:50;;;;;;;6.88;6.22;;;14.30;99.90;;;;;;5068678;28;20145;-66
2022/08/10 01:56:18;;;;;;;6.80;6.05;;;14.30;99.90;;;;;;5051295;28;20052;-66
2022/08/10 01:58:47;;;;;;;7.65;6.97;;;14.20;99.90;;;;;;5068079;28;20482;-66
2022/08/10 02:01:17;;;;;;;7.72;7.03;;;14.20;99.90;;;;;;5061229;28;20219;-66
2022/08/10 02:03:46;;;;;;;9.30;8.40;;;14.20;99.90;;;;;;5051251;28;20043;-66
2022/08/10 02:06:13;;;;;;;9.85;8.95;;;14.20;99.90;;;;;;5058538;28;20099;-66
2022/08/10 02:08:41;;;;;;;11.38;9.35;;;14.10;99.90;;;;;;5067042;28;20060;-66
2022/08/10 02:11:09;;;;;;;10.18;9.10;;;14.10;99.90;;;;;;5063102;28;20380;-66
2022/08/10 02:13:36;;;;;;;9.65;8.73;;;14.20;99.90;;;;;;5052800;28;20111;-66
2022/08/10 02:16:03;;;;;;;10.30;9.40;;;14.10;99.90;;;;;;5057138;28;20040;-66
2022/08/10 02:18:31;;;;;;;11.70;10.48;;;14.20;99.90;;;;;;5058657;28;20123;-66
2022/08/10 02:21:01;;;;;;;12.95;11.20;;;14.20;99.90;;;;;;5060518;28;20051;-66
2022/08/10 02:23:30;;;;;;;15.20;12.57;;;14.10;99.90;;;;;;5055261;28;20394;-66
2022/08/10 02:25:59;;;;;;;14.00;12.60;;;14.20;99.90;;;;;;5047915;28;20512;-66
2022/08/10 02:28:28;;;;;;;15.68;13.07;;;14.20;99.90;;;;;;5083816;28;20041;-66
2022/08/10 02:30:55;;;;;;;14.98;12.65;;;14.20;99.90;;;;;;5070083;28;20418;-66
2022/08/10 02:33:24;;;;;;;18.25;14.05;;;14.20;99.90;;;;;;5051293;28;20051;-66
2022/08/10 02:35:52;;;;;;;18.08;14.80;;;14.20;99.90;;;;;;5060245;28;20379;-66
2022/08/10 02:38:22;;;;;;;20.17;15.02;;;14.20;99.90;;;;;;5059976;28;21673;-66
2022/08/10 02:40:55;;;;;;;18.23;14.98;;;14.20;99.90;;;;;;5058256;28;20402;-66
2022/08/10 02:43:31;;;;;;;17.58;14.73;;;14.30;99.90;;;;;;5064193;28;20040;-66
2022/08/10 02:46:05;;;;;;;17.15;14.15;;;14.20;99.90;;;;;;5062084;28;20041;-66
2022/08/10 02:48:50;;;;;;;22.48;16.70;;;14.20;99.90;;;;;;5060768;28;20440;-66
2022/08/10 02:51:19;;;;;;;22.65;17.10;;;14.20;99.90;;;;;;5063561;28;20121;-66
2022/08/10 02:53:49;;;;;;;21.77;16.33;;;14.20;99.90;;;;;;5052490;28;20044;-66
2022/08/10 02:56:33;;;;;;;21.65;16.63;;;14.20;99.90;;;;;;5048378;28;20032;-66
2022/08/10 02:59:26;;;;;;;22.30;16.38;;;14.20;99.90;;;;;;5064894;28;20055;-66
2022/08/10 03:01:56;;;;;;;22.85;16.67;;;14.20;99.90;;;;;;5053226;28;20033;-66
2022/08/10 03:04:46;;;;;;;23.65;16.30;;;14.20;99.90;;;;;;5050320;28;20052;-66
2022/08/10 03:07:16;;;;;;;17.05;13.93;;;14.20;99.90;;;;;;5059206;28;20551;-67
2022/08/10 03:09:44;;;;;;;18.50;14.50;;;14.20;99.90;;;;;;5065026;28;20040;-66
2022/08/10 03:12:12;;;;;;;16.65;14.07;;;14.20;99.90;;;;;;5042986;28;20079;-66
2022/08/10 03:14:39;;;;;;;17.83;14.27;;;14.20;99.90;;;;;;5063048;28;20470;-66
2022/08/10 03:17:07;;;;;;;16.23;12.85;;;14.20;99.90;;;;;;5057439;28;20037;-66
2022/08/10 03:19:35;;;;;;;13.70;12.13;;;14.10;99.90;;;;;;5053663;28;20086;-66
2022/08/10 03:22:03;;;;;;;14.30;12.45;;;14.10;99.90;;;;;;5059396;28;20053;-66
2022/08/10 03:24:30;;;;;;;18.48;14.35;;;14.20;99.90;;;;;;5062511;28;20044;-66
2022/08/10 03:26:56;;;;;;;13.45;12.07;;;14.10;99.90;;;;;;5053414;28;20056;-66
2022/08/10 03:29:23;;;;;;;14.10;12.60;;;14.20;99.90;;;;;;5065507;28;20133;-66
2022/08/10 03:31:49;;;;;;;14.07;12.57;;;14.10;99.90;;;;;;5069029;28;20561;-66
2022/08/10 03:34:17;;;;;;;16.33;13.52;;;14.10;99.90;;;;;;5056240;28;20044;-66
2022/08/10 03:36:44;;;;;;;16.70;14.57;;;14.10;99.90;;;;;;5070575;28;20064;-66
2022/08/10 03:39:10;;;;;;;16.52;14.07;;;14.10;99.90;;;;;;5055821;28;20385;-66
2022/08/10 03:41:54;;;;;;;14.27;12.65;;;14.10;99.90;;;;;;5058956;28;20040;-66
2022/08/10 03:44:23;;;;;;;13.55;12.13;;;14.10;99.90;;;;;;5062099;28;20379;-66
2022/08/10 03:46:51;;;;;;;14.57;12.40;;;14.10;99.90;;;;;;5062722;28;20082;-66
2022/08/10 03:49:18;;;;;;;12.38;11.13;;;14.10;99.90;;;;;;5051569;28;20036;-66
2022/08/10 03:51:47;;;;;;;16.08;14.13;;;14.10;99.90;;;;;;5063251;28;20094;-66
2022/08/10 03:54:15;;;;;;;13.57;12.18;;;14.10;99.90;;;;;;5055722;28;20389;-66
2022/08/10 03:56:41;;;;;;;13.63;12.23;;;14.00;99.90;;;;;;5051139;28;20047;-66
2022/08/10 03:59:11;;;;;;;16.17;13.18;;;14.10;99.90;;;;;;5049959;28;20041;-66
2022/08/10 04:01:36;;;;;;;14.10;12.65;;;14.10;99.90;;;;;;5037744;28;20041;-66
2022/08/10 04:04:03;;;;;;;19.20;15.05;;;14.10;99.90;;;;;;5063781;28;20037;-66
2022/08/10 04:06:29;;;;;;;21.92;15.63;;;14.10;99.90;;;;;;5058756;28;20544;-66
2022/08/10 04:08:54;;;;;;;26.73;18.45;;;14.10;99.90;;;;;;5066823;28;20503;-66
2022/08/10 04:11:20;;;;;;;19.73;16.38;;;14.10;99.90;;;;;;5041299;28;20048;-66
2022/08/10 04:13:46;;;;;;;22.92;17.92;;;14.10;99.90;;;;;;5070756;28;20083;-66
2022/08/10 04:16:11;;;;;;;26.92;18.33;;;14.10;99.90;;;;;;5039292;28;20041;-66
2022/08/10 04:18:37;;;;;;;25.02;17.38;;;14.10;99.90;;;;;;5060426;28;20040;-66
2022/08/10 04:21:08;;;;;;;24.23;17.55;;;14.10;99.90;;;;;;5062711;28;20054;-66
2022/08/10 04:23:39;;;;;;;25.48;18.13;;;14.10;99.90;;;;;;5059883;22;20061;-66
2022/08/10 04:26:05;;;;;;;28.00;18.52;;;14.10;99.90;;;;;;5046711;28;20053;-66
2022/08/10 04:28:31;;;;;;;28.90;19.15;;;14.10;99.90;;;;;;5053629;28;20467;-66
2022/08/10 04:30:57;;;;;;;24.95;18.30;;;14.10;99.90;;;;;;5041226;28;20033;-66
2022/08/10 04:33:25;;;;;;;26.10;17.88;;;14.10;99.90;;;;;;5056205;28;20044;-66
2022/08/10 04:35:51;;;;;;;26.85;18.60;;;14.10;99.90;;;;;;5044001;28;20040;-66
2022/08/10 04:38:19;;;;;;;28.45;19.13;;;14.10;99.90;;;;;;5062035;28;20037;-66
2022/08/10 04:40:45;;;;;;;27.95;18.92;;;14.20;99.90;;;;;;5065603;28;20052;-66
2022/08/10 04:43:12;;;;;;;28.13;18.60;;;14.20;99.90;;;;;;5070548;28;20381;-66
2022/08/10 04:45:38;;;;;;;26.75;19.60;;;14.20;99.90;;;;;;5051629;28;20041;-66
2022/08/10 04:48:04;;;;;;;27.50;19.30;;;14.20;99.90;;;;;;5062145;28;20037;-66
2022/08/10 04:50:30;;;;;;;31.98;19.40;;;14.20;99.90;;;;;;5072692;28;20405;-66
2022/08/10 04:52:55;;;;;;;25.50;18.20;;;14.20;99.90;;;;;;5053311;28;20082;-66
2022/08/10 04:55:21;;;;;;;21.55;17.80;;;14.30;99.90;;;;;;5070599;28;20071;-66
2022/08/10 04:57:47;;;;;;;26.25;18.45;;;14.30;99.90;;;;;;5058137;28;20033;-67
2022/08/10 05:00:13;;;;;;;21.58;17.80;;;14.40;99.90;;;;;;5073961;28;20468;-66
2022/08/10 05:02:38;;;;;;;21.38;15.05;;;14.40;99.90;;;;;;5054859;28;20044;-66
2022/08/10 05:05:05;;;;;;;19.58;16.25;;;14.50;99.90;;;;;;5052985;28;20111;-65
2022/08/10 05:07:30;;;;;;;20.92;16.55;;;14.50;99.90;;;;;;5053252;28;20158;-66
2022/08/10 05:09:56;;;;;;;18.88;16.77;;;14.60;99.90;;;;;;5049109;28;20037;-66
2022/08/10 05:12:22;;;;;;;19.58;15.40;;;14.70;99.90;;;;;;5059807;28;20047;-66
2022/08/10 05:14:47;;;;;;;20.95;16.02;;;14.70;99.90;;;;;;5065354;28;20051;-66
2022/08/10 05:17:13;;;;;;;20.10;15.85;;;14.80;99.90;;;;;;5036296;28;20451;-66
2022/08/10 05:19:39;;;;;;;19.85;14.55;;;14.80;99.90;;;;;;5040704;28;20042;-66
2022/08/10 05:22:06;;;;;;;19.55;15.77;;;14.90;99.90;;;;;;5073311;28;20041;-66
2022/08/10 05:24:31;;;;;;;20.27;15.00;;;15.00;99.90;;;;;;5064864;28;20048;-66
2022/08/10 05:26:57;;;;;;;19.13;16.33;;;15.00;99.90;;;;;;5047688;28;20040;-66
2022/08/10 05:29:22;;;;;;;21.40;17.30;;;15.10;99.90;;;;;;5070071;28;20090;-66
2022/08/10 05:31:48;;;;;;;21.13;16.73;;;15.20;99.90;;;;;;5068913;28;20040;-66
2022/08/10 05:34:15;;;;;;;21.77;16.40;;;15.30;99.90;;;;;;5068878;28;20386;-66
2022/08/10 05:36:41;;;;;;;18.15;15.20;;;15.40;99.90;;;;;;5058232;28;20048;-66
2022/08/10 05:39:09;;;;;;;19.92;16.08;;;15.50;99.90;;;;;;5059529;28;20044;-66
2022/08/10 05:41:35;;;;;;;19.60;15.05;;;15.50;99.90;;;;;;5053524;28;20052;-66
2022/08/10 05:44:01;;;;;;;18.33;15.10;;;15.60;99.90;;;;;;5046582;28;20374;-66
2022/08/10 05:46:27;;;;;;;17.52;15.45;;;15.70;99.90;;;;;;5067023;28;20047;-66
2022/08/10 05:48:53;;;;;;;15.85;13.60;;;15.80;99.90;;;;;;5067841;28;20359;-66
2022/08/10 05:51:19;;;;;;;16.42;14.48;;;15.90;99.90;;;;;;5057118;28;20119;-67
2022/08/10 05:53:45;;;;;;;15.20;13.10;;;16.10;99.90;;;;;;5052019;28;20048;-67
2022/08/10 05:56:11;;;;;;;15.35;11.75;;;16.30;99.90;;;;;;5052078;28;20033;-66
2022/08/10 05:58:37;;;;;;;13.75;12.02;;;17.10;99.90;;;;;;5039063;28;20070;-66
2022/08/10 06:01:11;;;;;;;10.88;9.55;;;18.30;99.90;;;;;;5045643;28;20071;-66
2022/08/10 06:03:39;;;;;;;11.20;8.98;;;;;;;;;;5048833;28;20087;-66
2022/08/10 06:06:08;;;;;;;9.00;8.10;;;20.00;99.90;;;;;;5060746;28;20796;-66
2022/08/10 06:08:34;;;;;;;9.52;8.50;;;21.20;99.90;;;;;;5067860;28;20048;-67
2022/08/10 06:11:03;;;;;;;9.63;8.13;;;22.10;99.90;;;;;;5054406;28;20037;-67
2022/08/10 06:16:18;;;;;;;10.38;7.47;;;;;;;;;;5054945;28;20045;-67
2022/08/10 06:18:44;;;;;;;8.25;7.45;;;23.50;99.90;;;;;;5054293;28;20034;-66
2022/08/10 06:21:11;;;;;;;7.85;6.80;;;24.20;99.90;;;;;;5056308;28;20558;-67
2022/08/10 06:23:38;;;;;;;8.30;6.15;;;24.70;99.90;;;;;;5071998;28;20057;-67
2022/08/10 06:26:05;;;;;;;6.53;5.97;;;25.10;99.00;;;;;;5050391;28;20390;-67
2022/08/10 06:28:36;;;;;;;7.22;6.30;;;25.00;99.60;;;;;;5077804;28;20174;-67
2022/08/10 06:31:04;;;;;;;6.13;5.55;;;25.50;97.40;;;;;;5047704;28;20052;-67
2022/08/10 06:33:32;;;;;;;6.13;5.40;;;25.30;98.30;;;;;;5059538;28;20037;-67
2022/08/10 06:35:59;;;;;;;5.90;5.30;;;26.20;96.40;;;;;;5049408;28;20143;-67
2022/08/10 06:38:27;;;;;;;6.15;5.22;;;26.10;96.70;;;;;;5051119;28;20036;-67
2022/08/10 06:40:57;;;;;;;6.18;5.57;;;26.10;96.60;;;;;;5049117;28;20129;-67
2022/08/10 06:43:25;;;;;;;6.68;5.32;;;26.00;96.10;;;;;;5062069;28;20052;-67
2022/08/10 06:45:59;;;;;;;6.07;5.53;;;26.50;95.40;;;;;;5071959;28;20135;-67
2022/08/10 06:48:31;;;;;;;6.53;5.90;;;26.40;94.40;;;;;;5053795;28;20059;-67
2022/08/10 06:51:03;;;;;;;7.82;6.15;;;26.50;94.60;;;;;;5045367;28;20623;-66
2022/08/10 06:53:39;;;;;;;6.75;5.63;;;27.00;94.50;;;;;;5052762;28;20385;-67
2022/08/10 06:56:10;;;;;;;5.70;5.20;;;27.90;93.40;;;;;;5052503;28;20117;-67
2022/08/10 06:58:40;;;;;;;5.95;5.45;;;28.20;91.80;;;;;;5063565;28;20040;-67
2022/08/10 07:01:11;;;;;;;5.63;5.13;;;28.20;92.60;;;;;;5058468;28;20048;-67
2022/08/10 07:03:47;;;;;;;6.28;5.20;;;28.70;90.80;;;;;;5071530;28;20086;-67
2022/08/10 07:06:14;;;;;;;6.13;4.90;;;;;;;;;;5070080;28;20051;-67
2022/08/10 07:08:41;;;;;;;6.07;4.78;;;29.00;90.80;;;;;;5057527;28;20043;-68
2022/08/10 07:11:08;;;;;;;4.85;4.43;;;29.10;90.40;;;;;;5057688;28;20060;-67
2022/08/10 07:13:36;;;;;;;4.70;4.22;;;29.50;89.00;;;;;;5047166;28;20130;-67
2022/08/10 07:16:04;;;;;;;7.25;5.28;;;29.70;89.10;;;;;;5052470;28;20051;-67
2022/08/10 07:18:31;;;;;;;5.32;4.82;;;28.90;87.00;;;;;;5057931;28;20388;-66
2022/08/10 07:21:00;;;;;;;8.35;5.13;;;29.00;89.00;;;;;;5026696;28;20041;-66
2022/08/10 07:23:28;;;;;;;5.38;4.20;;;28.50;88.60;;;;;;5070950;28;20470;-67
2022/08/10 07:25:56;;;;;;;4.15;3.75;;;28.80;87.60;;;;;;5046509;28;20098;-67
2022/08/10 07:28:23;;;;;;;3.90;3.60;;;29.20;86.60;;;;;;5057942;28;20052;-67
2022/08/10 07:30:51;;;;;;;4.25;3.85;;;29.90;82.60;;;;;;5045805;28;20091;-67
2022/08/10 07:33:19;;;;;;;3.15;2.85;;;29.70;81.60;;;;;;5053357;28;20051;-67
2022/08/10 07:35:46;;;;;;;3.10;2.40;;;30.10;83.30;;;;;;5058692;28;20079;-68
2022/08/10 07:38:22;;;;;;;3.78;2.28;;;30.50;79.50;;;;;;5061483;28;20452;-67
2022/08/10 07:40:50;;;;;;;5.82;2.60;;;30.70;80.00;;;;;;5046187;28;20044;-67
2022/08/10 07:43:19;;;;;;;5.63;2.92;;;30.80;78.60;;;;;;5059884;28;20044;-68
2022/08/10 07:45:46;;;;;;;2.75;2.50;;;30.60;76.90;;;;;;5067557;28;20486;-67
2022/08/10 07:48:21;;;;;;;5.40;2.47;;;30.70;77.20;;;;;;5045710;28;20045;-67
2022/08/10 07:50:50;;;;;;;3.30;2.42;;;30.40;77.50;;;;;;5060111;28;20040;-67
2022/08/10 07:53:23;;;;;;;2.20;1.90;;;30.30;77.60;;;;;;5046441;28;20115;-67
2022/08/10 07:55:51;;;;;;;1.70;1.60;;;30.50;74.90;;;;;;5038952;28;20057;-67
2022/08/10 07:58:18;;;;;;;2.47;1.90;;;30.50;74.70;;;;;;5040789;28;20041;-67
2022/08/10 08:00:50;;;;;;;4.80;2.08;;;30.20;76.10;;;;;;5042487;28;20060;-67
2022/08/10 08:03:21;;;;;;;4.13;1.90;;;29.80;76.10;;;;;;5062982;28;20048;-67
2022/08/10 08:05:47;;;;;;;3.58;1.80;;;29.00;77.30;;;;;;5069129;28;20049;-67
2022/08/10 08:08:15;;;;;;;3.35;2.40;;;28.10;79.70;;;;;;5070218;28;20056;-67
2022/08/10 08:10:41;;;;;;;3.42;2.47;;;27.10;80.60;;;;;;5068710;28;20040;-66
2022/08/10 08:13:07;;;;;;;3.15;2.13;;;26.10;83.30;;;;;;5060511;28;20038;-66
2022/08/10 08:15:34;;;;;;;2.97;2.00;;;25.90;84.30;;;;;;5051325;28;20045;-66
2022/08/10 08:18:01;;;;;;;3.33;2.20;;;25.30;86.20;;;;;;5062382;28;20083;-67
2022/08/10 08:20:27;;;;;;;3.33;2.05;;;25.30;85.00;;;;;;5045882;28;20033;-66
2022/08/10 08:22:54;;;;;;;4.63;2.00;;;25.00;86.80;;;;;;5037902;28;20050;-67
2022/08/10 08:25:21;;;;;;;4.28;2.30;;;24.70;87.10;;;;;;5064114;28;20102;-66
2022/08/10 08:27:51;;;;;;;2.55;1.83;;;24.60;87.70;;;;;;5073584;28;20056;-66
2022/08/10 08:30:19;;;;;;;4.83;1.87;;;24.00;90.50;;;;;;5048335;28;20041;-67
2022/08/10 08:35:48;;;;;;;3.72;1.75;;;24.00;90.30;;;;;;5038394;28;20049;-66
2022/08/10 08:38:15;;;;;;;2.97;2.30;;;23.80;90.70;;;;;;5046100;28;20064;-67
2022/08/10 08:40:49;;;;;;;3.55;1.52;;;24.00;90.60;;;;;;5054198;28;20048;-66
2022/08/10 08:43:52;;;;;;;3.78;1.90;;;24.00;90.10;;;;;;5072043;28;20048;-66
2022/08/10 08:46:52;;;;;;;3.38;1.80;;;24.00;90.50;;;;;;5051943;28;20097;-67
2022/08/10 08:49:50;;;;;;;4.32;1.90;;;24.20;90.20;;;;;;5057717;28;20148;-66
2022/08/10 08:52:54;;;;;;;4.35;1.92;;;24.30;89.50;;;;;;5052510;28;20083;-66
2022/08/10 08:55:53;;;;;;;5.75;2.20;;;24.30;90.80;;;;;;5042309;28;20041;-65
2022/08/10 08:58:28;;;;;;;2.33;1.80;;;24.20;90.00;;;;;;5042240;28;20048;-66
2022/08/10 09:00:53;;;;;;;3.25;1.80;;;24.20;90.50;;;;;;5039744;28;20052;-67
2022/08/10 09:03:22;;;;;;;3.33;2.00;;;24.10;90.80;;;;;;5051709;28;20040;-66
2022/08/10 09:05:51;;;;;;;4.95;2.08;;;24.20;91.20;;;;;;5058218;28;20103;-66
2022/08/10 09:08:52;;;;;;;4.35;1.95;;;24.10;91.00;;;;;;5057149;28;20040;-67
2022/08/10 09:11:18;;;;;;;4.77;2.00;;;24.20;91.40;;;;;;5040443;28;20083;-66
2022/08/10 09:14:04;;;;;;;3.42;2.00;;;24.10;90.90;;;;;;5049790;28;20303;-66
2022/08/10 09:16:52;;;;;;;5.90;2.20;;;24.20;90.70;;;;;;5050698;28;20033;-66
2022/08/10 09:19:40;;;;;;;3.97;1.90;;;24.40;90.30;;;;;;5039958;28;20566;-66
2022/08/10 09:22:20;;;;;;;9.45;2.55;;;24.50;90.30;;;;;;5047909;28;20037;-67
2022/08/10 09:24:53;;;;;;;4.68;1.80;;;24.20;90.70;;;;;;5044880;28;20768;-67
2022/08/10 09:27:21;;;;;;;3.45;1.85;;;24.40;91.30;;;;;;5068794;28;20045;-67
2022/08/10 09:29:55;;;;;;;3.00;1.80;;;24.70;90.10;;;;;;5050651;28;20087;-67
2022/08/10 09:32:40;;;;;;;8.23;2.42;;;24.70;90.40;;;;;;5057150;28;20585;-66
2022/08/10 09:35:31;;;;;;;7.53;2.28;;;24.70;90.00;;;;;;5060120;28;20048;-66
2022/08/10 09:38:05;;;;;;;2.70;1.87;;;24.70;90.00;;;;;;5056972;28;20033;-66
2022/08/10 09:40:34;;;;;;;4.82;2.20;;;24.70;90.30;;;;;;5034966;28;20464;-67
2022/08/10 09:43:19;;;;;;;2.92;1.95;;;24.40;90.20;;;;;;5061443;28;20502;-67
2022/08/10 09:45:59;;;;;;;5.97;2.08;;;24.50;90.70;;;;;;5057485;28;20048;-66
2022/08/10 09:48:38;;;;;;;4.88;2.15;;;24.70;90.30;;;;;;5051144;28;20170;-67
2022/08/10 09:51:13;;;;;;;3.08;1.73;;;24.40;90.40;;;;;;5063186;28;20373;-67
2022/08/10 09:53:59;;;;;;;6.30;1.95;;;24.30;90.90;;;;;;5053443;28;20044;-68
2022/08/10 09:56:51;;;;;;;4.80;1.92;;;24.40;90.80;;;;;;5056799;28;20059;-67
2022/08/10 09:59:29;;;;;;;5.28;1.88;;;24.70;90.20;;;;;;5064832;28;20506;-67
2022/08/10 10:02:26;;;;;;;2.72;2.08;;;24.90;89.30;;;;;;5071005;28;20044;-67
2022/08/10 10:05:23;;;;;;;4.38;1.70;;;25.00;87.40;;;;;;5037615;28;20047;-67
2022/08/10 10:08:07;;;;;;;3.58;1.70;;;25.00;88.30;;;;;;5061537;28;20049;-67
2022/08/10 10:10:58;;;;;;;2.83;1.73;;;25.00;87.80;;;;;;5032776;28;20049;-67
2022/08/10 10:13:37;;;;;;;3.28;1.45;;;25.20;86.10;;;;;;5070613;28;20044;-68
2022/08/10 10:16:15;;;;;;;5.53;2.08;;;25.10;85.30;;;;;;5057060;28;20045;-67
2022/08/10 10:18:46;;;;;;;3.47;1.52;;;25.20;86.20;;;;;;5070985;28;20047;-67
2022/08/10 10:21:24;;;;;;;8.48;1.70;;;25.30;87.40;;;;;;5070804;28;20489;-67
2022/08/10 10:24:08;;;;;;;1.60;1.50;;;25.40;85.90;;;;;;5050313;28;20053;-68
2022/08/10 10:26:43;;;;;;;1.52;1.30;;;25.60;83.30;;;;;;5054344;28;20040;-68
2022/08/10 10:29:30;;;;;;;2.30;1.60;;;25.60;84.80;;;;;;5066455;28;20048;-68
2022/08/10 10:32:07;;;;;;;3.63;1.63;;;25.70;84.80;;;;;;5052525;28;20073;-68
2022/08/10 10:35:03;;;;;;;3.67;1.48;;;26.00;83.40;;;;;;5045485;28;20489;-68
2022/08/10 10:37:31;;;;;;;4.75;1.77;;;26.00;84.60;;;;;;5069602;28;20032;-68
2022/08/10 10:39:59;;;;;;;4.78;1.80;;;25.90;83.50;;;;;;5071985;28;20402;-67
2022/08/10 10:42:44;;;;;;;4.03;1.75;;;26.10;81.70;;;;;;5067130;28;20033;-67
2022/08/10 10:45:17;;;;;;;2.88;1.45;;;26.10;82.30;;;;;;5047669;28;20059;-68
2022/08/10 10:47:54;;;;;;;2.28;1.30;;;26.30;82.00;;;;;;5064032;28;20051;-67
2022/08/10 10:50:36;;;;;;;4.18;1.40;;;26.40;82.70;;;;;;5071856;28;20111;-67
2022/08/10 10:53:07;;;;;;;;;;;26.60;80.30;;;;;;5046302;28;20048;-67
2022/08/10 10:55:44;;;;;;;3.28;1.40;;;26.50;81.30;;;;;;5061965;28;19963;-67
2022/08/10 10:58:21;;;;;;;3.88;1.10;;;26.50;81.80;;;;;;5070168;28;20080;-67
2022/08/10 11:01:04;;;;;;;2.03;1.00;;;26.60;80.60;;;;;;5063259;28;20471;-68
2022/08/10 11:03:39;;;;;;;2.65;1.42;;;26.60;80.70;;;;;;5066091;28;20050;-67
2022/08/10 11:06:25;;;;;;;1.15;1.05;;;26.60;80.60;;;;;;5050123;28;20060;-67
2022/08/10 11:09:02;;;;;;;2.28;1.02;;;26.90;80.60;;;;;;5063522;28;20045;-67
2022/08/10 11:11:33;;;;;;;1.33;1.15;;;27.00;78.00;;;;;;5059547;28;20055;-67
2022/08/10 11:14:22;;;;;;;1.75;1.20;;;27.10;78.30;;;;;;5058693;28;20036;-67
2022/08/10 11:16:59;;;;;;;1.65;1.33;;;27.10;78.50;;;;;;5065385;28;20051;-67
2022/08/10 11:20:03;;;;;;;3.72;1.45;;;27.00;77.80;;;;;;5071472;28;20109;-67
2022/08/10 11:23:02;;;;;;;2.15;1.40;;;26.90;78.50;;;;;;5039993;28;20053;-67
2022/08/10 11:25:31;;;;;;;2.75;1.40;;;26.80;77.70;;;;;;5046772;28;20045;-67
2022/08/10 11:27:59;;;;;;;1.70;1.10;;;26.70;77.00;;;;;;5060358;28;20048;-68
2022/08/10 11:30:42;;;;;;;1.20;1.10;;;27.10;79.40;;;;;;5058954;28;20524;-67
2022/08/10 11:33:24;;;;;;;1.48;1.20;;;27.20;76.50;;;;;;5068853;28;20056;-67
2022/08/10 11:36:01;;;;;;;1.38;1.05;;;27.20;78.20;;;;;;5069756;28;20055;-67
2022/08/10 11:38:48;;;;;;;1.70;1.10;;;27.20;77.90;;;;;;5069346;28;20040;-67
2022/08/10 11:41:42;;;;;;;1.73;1.30;;;27.20;75.40;;;;;;5039250;28;20048;-67
2022/08/10 11:44:25;;;;;;;4.40;1.30;;;27.30;77.40;;;;;;5053103;28;20497;-68
2022/08/10 11:47:09;;;;;;;2.55;1.08;;;27.20;76.60;;;;;;5042415;28;20660;-67
2022/08/10 11:49:37;;;;;;;3.15;1.05;;;27.30;77.50;;;;;;5065649;28;20042;-67
2022/08/10 11:52:09;;;;;;;2.78;1.13;;;27.40;76.40;;;;;;5060209;28;20131;-68
2022/08/10 11:54:42;;;;;;;2.78;1.10;;;27.30;75.70;;;;;;5048439;28;20052;-67
2022/08/10 11:57:10;;;;;;;2.30;1.40;;;27.40;75.80;;;;;;5054559;28;20119;-68
2022/08/10 12:02:26;;;;;;;2.80;1.05;;;27.10;73.80;;;;;;5069273;28;20490;-68
2022/08/10 12:04:57;;;;;;;1.95;1.00;;;27.40;76.80;;;;;;5068037;28;20477;-67
2022/08/10 12:07:24;;;;;;;;;;;27.40;75.90;;;;;;5074000;28;20040;-67
2022/08/10 12:09:51;;;;;;;2.38;1.33;;;27.40;74.40;;;;;;5073540;28;20318;-68
2022/08/10 12:12:18;;;;;;;1.95;0.90;;;27.60;76.20;;;;;;5073407;28;20116;-67
2022/08/10 12:14:54;;;;;;;2.55;1.00;;;27.40;72.60;;;;;;5071148;28;20151;-67
2022/08/10 12:17:25;;;;;;;2.17;1.20;;;27.50;74.40;;;;;;5072790;28;20120;-67
2022/08/10 12:20:05;;;;;;;1.30;1.10;;;27.60;74.00;;;;;;5061019;28;20048;-67
2022/08/10 12:22:59;;;;;;;1.25;1.15;;;27.30;73.40;;;;;;5074379;28;20048;-67
2022/08/10 12:25:34;;;;;;;2.33;1.23;;;27.40;73.90;;;;;;5036992;28;20124;-67
2022/08/10 12:28:23;;;;;;;2.08;1.10;;;27.40;74.30;;;;;;5063723;28;20397;-68
2022/08/10 12:30:53;;;;;;;1.48;1.10;;;27.70;73.30;;;;;;5058214;28;20041;-68
2022/08/10 12:33:23;;;;;;;4.18;1.10;;;27.90;74.30;;;;;;5073916;28;20048;-68
2022/08/10 12:36:02;;;;;;;4.82;1.10;;;28.00;72.80;;;;;;5073582;28;20037;-67
2022/08/10 12:38:36;;;;;;;1.40;0.90;;;28.00;74.00;;;;;;5071708;28;20041;-68
2022/08/10 12:41:15;;;;;;;1.85;1.23;;;28.00;73.40;;;;;;5058978;28;20068;-68
2022/08/10 12:43:57;;;;;;;4.70;1.02;;;27.80;73.90;;;;;;5073672;28;20041;-68
2022/08/10 12:46:40;;;;;;;1.73;1.15;;;28.00;74.30;;;;;;5074008;28;20406;-68
2022/08/10 12:49:19;;;;;;;1.63;1.20;;;28.00;73.70;;;;;;5056442;28;20478;-67
2022/08/10 12:51:55;;;;;;;2.63;1.23;;;28.10;72.00;;;;;;5055363;28;20044;-68
2022/08/10 12:54:22;;;;;;;1.23;0.93;;;28.00;73.10;;;;;;5068981;28;20474;-67
2022/08/10 12:57:00;;;;;;;2.15;1.45;;;28.20;74.60;;;;;;5056025;28;20102;-67
2022/08/10 12:59:27;;;;;;;3.25;1.42;;;28.20;73.90;;;;;;5054226;28;20045;-67
2022/08/10 13:01:55;;;;;;;2.30;1.38;;;28.10;72.90;;;;;;5053868;28;20065;-66
2022/08/10 13:04:33;;;;;;;2.13;1.23;;;28.30;74.40;;;;;;5046558;28;20044;-66
2022/08/10 13:07:01;;;;;;;1.35;1.00;;;28.30;74.30;;;;;;5044150;28;20437;-67
2022/08/10 13:09:27;;;;;;;1.60;1.08;;;28.30;73.20;;;;;;5055240;28;20040;-67
2022/08/10 13:12:12;;;;;;;2.63;1.20;;;28.40;74.20;;;;;;5055064;28;20048;-67
2022/08/10 13:14:55;;;;;;;2.03;1.23;;;28.10;70.80;;;;;;5053269;28;20124;-66
2022/08/10 13:17:29;;;;;;;1.60;1.00;;;27.70;67.80;;;;;;5052216;28;20029;-67
2022/08/10 13:19:58;;;;;;;2.30;0.93;;;28.00;72.10;;;;;;5039510;28;20053;-67